Time;durP1;ratioP1;P1;durP2;ratioP2;P2;SDS_P1;SDS_P2;PMS_P1;PMS_P2;Temp;Humidity;BMP_temperature;BMP_pressure;BME280_temperature;BME280_humidity;BME280_pressure;Samples;Min_cycle;Max_cycle;Signal;HPM_P1;HPM_P2
2021/12/24 00:00:20;;;;;;;51.93;28.30;;;2.70;99.90;;;;;;5114701;28;20490;-69
2021/12/24 00:02:49;;;;;;;50.57;27.47;;;2.70;99.90;;;;;;5114719;28;20873;-69
2021/12/24 00:05:17;;;;;;;54.00;29.03;;;2.80;99.90;;;;;;5114885;28;20456;-69
2021/12/24 00:07:44;;;;;;;53.20;30.60;;;2.80;99.90;;;;;;5114443;28;20464;-69
2021/12/24 00:10:12;;;;;;;62.50;29.80;;;2.80;99.90;;;;;;5114402;28;20956;-69
2021/12/24 00:12:44;;;;;;;56.33;29.93;;;2.80;99.90;;;;;;5114559;28;20453;-69
2021/12/24 00:15:30;;;;;;;59.37;28.23;;;2.80;99.90;;;;;;5114642;28;20444;-69
2021/12/24 00:18:04;;;;;;;49.53;28.17;;;2.80;99.90;;;;;;5114890;28;20452;-69
2021/12/24 00:21:26;;;;;;;54.23;29.20;;;2.80;99.90;;;;;;5114773;28;20475;-70
2021/12/24 00:37:08;;;;;;;57.70;27.53;;;2.80;99.90;;;;;;5114513;28;20942;-69
2021/12/24 00:39:41;;;;;;;55.27;28.33;;;2.80;99.90;;;;;;5114359;28;20460;-67
2021/12/24 00:42:09;;;;;;;57.60;29.73;;;2.90;99.90;;;;;;5114611;28;20436;-70
2021/12/24 00:44:35;;;;;;;56.03;29.13;;;2.90;99.90;;;;;;5115071;28;20537;-68
2021/12/24 00:47:02;;;;;;;63.47;31.50;;;2.90;99.90;;;;;;5114987;28;20467;-70
2021/12/24 00:49:29;;;;;;;61.53;28.47;;;2.90;99.90;;;;;;5114281;28;20484;-70
2021/12/24 00:52:07;;;;;;;55.70;28.63;;;3.00;99.90;;;;;;5114553;28;20464;-70
2021/12/24 00:57:20;;;;;;;62.90;30.33;;;3.00;99.90;;;;;;5118224;28;20506;-69
2021/12/24 00:59:46;;;;;;;57.80;28.80;;;3.00;99.90;;;;;;5118458;28;20463;-69
2021/12/24 01:02:13;;;;;;;51.27;27.30;;;3.00;99.90;;;;;;5118151;28;20452;-69
2021/12/24 01:04:40;;;;;;;56.00;28.00;;;3.10;99.90;;;;;;5118139;27;20489;-69
2021/12/24 01:07:06;;;;;;;56.83;27.47;;;3.10;99.90;;;;;;5118183;28;20779;-69
2021/12/24 01:09:34;;;;;;;60.23;30.10;;;3.10;99.90;;;;;;5117830;28;20480;-69
2021/12/24 01:12:01;;;;;;;62.50;29.53;;;3.10;99.90;;;;;;5118037;28;20467;-69
2021/12/24 01:14:29;;;;;;;60.60;29.07;;;3.10;99.90;;;;;;5118297;27;20836;-69
2021/12/24 01:17:06;;;;;;;59.63;29.57;;;3.10;99.90;;;;;;5117981;28;20466;-70
2021/12/24 01:19:38;;;;;;;54.20;27.93;;;3.10;99.90;;;;;;5117746;28;20429;-69
2021/12/24 01:22:38;;;;;;;55.07;28.00;;;3.10;99.90;;;;;;5117781;28;20444;-69
2021/12/24 01:25:07;;;;;;;55.77;27.87;;;3.10;99.90;;;;;;5117321;28;20448;-70
2021/12/24 01:27:55;;;;;;;55.57;27.70;;;3.10;99.90;;;;;;5117627;28;20896;-70
2021/12/24 01:38:38;;;;;;;54.87;29.10;;;3.20;99.90;;;;;;5117008;28;20442;-70
2021/12/24 01:41:09;;;;;;;55.70;26.73;;;3.20;99.90;;;;;;5117037;28;20451;-70
2021/12/24 01:43:35;;;;;;;59.20;27.80;;;3.20;99.90;;;;;;5117304;28;20531;-70
2021/12/24 01:46:03;;;;;;;56.60;29.30;;;3.20;99.90;;;;;;5116941;28;20496;-70
2021/12/24 01:48:30;;;;;;;48.33;26.17;;;3.30;99.90;;;;;;5117045;28;20876;-69
2021/12/24 01:50:56;;;;;;;49.33;25.97;;;3.30;99.90;;;;;;5117160;27;20765;-70
2021/12/24 01:53:25;;;;;;;49.70;26.37;;;3.30;99.90;;;;;;5116971;28;20513;-70
2021/12/24 01:55:55;;;;;;;50.40;27.47;;;3.30;99.90;;;;;;5116881;28;20466;-70
2021/12/24 01:58:25;;;;;;;47.27;27.00;;;3.30;99.90;;;;;;5116877;28;20778;-69
2021/12/24 02:00:55;;;;;;;54.37;27.30;;;3.30;99.90;;;;;;5116975;28;20456;-70
2021/12/24 02:03:22;;;;;;;48.60;27.13;;;3.40;99.90;;;;;;5116574;28;20558;-70
2021/12/24 02:05:49;;;;;;;48.77;25.80;;;3.40;99.90;;;;;;5116754;28;20471;-71
2021/12/24 02:08:17;;;;;;;46.37;24.50;;;3.40;99.90;;;;;;5116661;28;20468;-70
2021/12/24 02:10:47;;;;;;;48.20;26.40;;;3.40;99.90;;;;;;5116962;28;20460;-70
2021/12/24 02:13:14;;;;;;;46.17;24.77;;;3.50;99.90;;;;;;5116667;28;20468;-70
2021/12/24 02:15:59;;;;;;;45.73;25.00;;;3.50;99.90;;;;;;5116479;28;20536;-70
2021/12/24 02:29:32;;;;;;;43.77;21.80;;;3.60;99.90;;;;;;5115987;28;20464;-70
2021/12/24 02:32:02;;;;;;;34.93;21.57;;;3.60;99.90;;;;;;5116319;28;20931;-69
2021/12/24 02:34:28;;;;;;;39.23;21.37;;;3.60;99.90;;;;;;5116721;27;20464;-70
2021/12/24 02:36:57;;;;;;;36.40;21.60;;;3.60;99.90;;;;;;5116125;27;20457;-70
2021/12/24 02:39:23;;;;;;;35.83;19.70;;;3.60;99.90;;;;;;5116444;28;20767;-70
2021/12/24 02:41:50;;;;;;;42.27;21.03;;;3.70;99.90;;;;;;5116164;28;20461;-69
2021/12/24 02:44:18;;;;;;;33.40;21.03;;;3.70;99.90;;;;;;5115993;28;20487;-69
2021/12/24 02:47:08;;;;;;;36.23;19.77;;;3.70;99.90;;;;;;5116283;28;20532;-69
2021/12/24 02:55:09;;;;;;;32.90;19.53;;;3.80;99.90;;;;;;5115816;28;20424;-68
2021/12/24 02:57:38;;;;;;;34.00;20.03;;;3.80;99.90;;;;;;5115991;28;20448;-68
2021/12/24 03:00:13;;;;;;;31.93;18.80;;;3.80;99.90;;;;;;5115654;28;20871;-68
2021/12/24 03:02:40;;;;;;;32.07;19.10;;;3.80;99.90;;;;;;5115808;28;20812;-68
2021/12/24 03:05:08;;;;;;;34.30;19.13;;;3.90;99.90;;;;;;5115732;27;20786;-68
2021/12/24 03:07:36;;;;;;;31.77;18.47;;;3.90;99.90;;;;;;5115454;28;20927;-69
2021/12/24 03:10:03;;;;;;;30.33;18.07;;;3.90;99.90;;;;;;5115394;28;20480;-69
2021/12/24 03:12:33;;;;;;;29.73;17.80;;;3.90;99.90;;;;;;5115599;28;20479;-69
2021/12/24 03:14:59;;;;;;;27.97;17.00;;;4.00;99.90;;;;;;5115320;27;20917;-69
2021/12/24 03:17:26;;;;;;;31.70;17.27;;;4.00;99.90;;;;;;5115189;28;20460;-70
2021/12/24 03:19:56;;;;;;;29.70;18.00;;;4.00;99.90;;;;;;5115397;28;20754;-69
2021/12/24 03:22:37;;;;;;;26.70;16.97;;;4.00;99.90;;;;;;5115341;28;20460;-69
2021/12/24 03:25:06;;;;;;;27.50;17.27;;;4.00;99.90;;;;;;5115440;28;20498;-69
2021/12/24 03:27:33;;;;;;;29.97;16.93;;;4.00;99.90;;;;;;5115322;28;20472;-69
2021/12/24 03:29:59;;;;;;;26.43;17.20;;;4.00;99.90;;;;;;5114986;28;20536;-68
2021/12/24 03:32:26;;;;;;;29.30;16.90;;;4.00;99.90;;;;;;5114955;28;20460;-69
2021/12/24 03:34:53;;;;;;;36.03;19.30;;;4.00;99.90;;;;;;5115226;28;20463;-69
2021/12/24 03:37:20;;;;;;;28.77;17.50;;;4.10;99.90;;;;;;5115224;28;20524;-69
2021/12/24 03:39:47;;;;;;;28.47;17.17;;;4.00;99.90;;;;;;5115246;28;20448;-69
2021/12/24 03:42:15;;;;;;;30.23;17.10;;;4.10;99.90;;;;;;5115140;28;20517;-69
2021/12/24 03:44:45;;;;;;;30.33;16.70;;;4.10;99.90;;;;;;5116676;28;20510;-68
2021/12/24 03:47:14;;;;;;;29.50;16.27;;;4.10;99.90;;;;;;5116454;28;20616;-68
2021/12/24 03:49:53;;;;;;;30.60;16.60;;;4.10;99.90;;;;;;5115677;28;20508;-69
2021/12/24 03:52:37;;;;;;;33.83;17.90;;;4.10;99.90;;;;;;5115172;28;20532;-69
2021/12/24 03:55:04;;;;;;;28.57;17.00;;;4.20;99.90;;;;;;5114815;28;20527;-69
2021/12/24 03:57:34;;;;;;;28.47;16.70;;;4.20;99.90;;;;;;5115156;28;20540;-69
2021/12/24 04:00:09;;;;;;;31.90;18.63;;;4.20;99.90;;;;;;5114865;28;20460;-69
2021/12/24 04:02:36;;;;;;;31.80;17.10;;;4.20;99.90;;;;;;5115450;28;20440;-69
2021/12/24 04:05:03;;;;;;;32.83;17.10;;;4.20;99.90;;;;;;5115535;28;20460;-69
2021/12/24 04:07:30;;;;;;;31.00;18.73;;;4.30;99.90;;;;;;5115019;28;20479;-69
2021/12/24 04:10:02;;;;;;;33.17;18.93;;;4.30;99.90;;;;;;5114940;28;20480;-69
2021/12/24 04:12:29;;;;;;;29.20;16.03;;;4.30;99.90;;;;;;5114877;28;20832;-68
2021/12/24 04:14:57;;;;;;;31.63;17.70;;;4.30;99.90;;;;;;5114890;28;20521;-69
2021/12/24 04:17:24;;;;;;;26.80;14.60;;;4.30;99.90;;;;;;5114620;28;20467;-69
2021/12/24 04:25:20;;;;;;;31.53;16.57;;;4.40;99.90;;;;;;5114498;28;20424;-69
2021/12/24 04:27:49;;;;;;;26.80;16.53;;;4.40;99.90;;;;;;5116105;28;20452;-69
2021/12/24 04:30:22;;;;;;;29.40;16.20;;;4.50;99.90;;;;;;5118636;28;20511;-69
2021/12/24 04:32:56;;;;;;;27.00;15.70;;;4.50;99.90;;;;;;5118606;28;20440;-69
2021/12/24 04:35:39;;;;;;;26.90;16.93;;;4.50;99.90;;;;;;5118525;28;20441;-69
2021/12/24 04:52:15;;;;;;;25.83;15.73;;;4.60;99.90;;;;;;5118093;28;20439;-69
2021/12/24 05:03:04;;;;;;;24.23;14.67;;;4.70;99.90;;;;;;5119058;28;20516;-69
2021/12/24 05:05:38;;;;;;;24.30;13.73;;;4.70;99.90;;;;;;5118420;28;20436;-70
2021/12/24 05:08:22;;;;;;;21.57;14.20;;;4.70;99.90;;;;;;5118248;28;20494;-70
2021/12/24 05:10:51;;;;;;;25.63;13.00;;;4.70;99.90;;;;;;5118621;28;20540;-70
2021/12/24 05:13:20;;;;;;;19.97;12.30;;;4.70;99.90;;;;;;5118267;28;20791;-69
2021/12/24 05:15:51;;;;;;;17.63;12.03;;;4.80;99.90;;;;;;5118022;28;20456;-70
2021/12/24 05:18:48;;;;;;;20.60;13.50;;;4.80;99.90;;;;;;5117748;28;20440;-70
2021/12/24 05:23:58;;;;;;;21.00;12.53;;;4.90;99.90;;;;;;5117668;28;20428;-70
2021/12/24 05:26:25;;;;;;;16.80;9.77;;;4.90;99.90;;;;;;5117669;28;20460;-70
2021/12/24 05:28:52;;;;;;;19.07;11.47;;;5.00;99.90;;;;;;5117179;28;20925;-70
2021/12/24 05:31:20;;;;;;;16.90;11.10;;;5.00;99.90;;;;;;5117861;28;20480;-70
2021/12/24 05:33:48;;;;;;;15.60;10.50;;;5.00;99.90;;;;;;5117591;28;20460;-70
2021/12/24 05:36:15;;;;;;;21.13;11.60;;;5.00;99.90;;;;;;5117148;28;20452;-70
2021/12/24 05:38:42;;;;;;;17.90;11.17;;;5.00;99.90;;;;;;5117252;28;20944;-70
2021/12/24 05:41:08;;;;;;;19.13;10.60;;;5.00;99.90;;;;;;5117455;28;20786;-69
2021/12/24 05:43:35;;;;;;;16.80;9.20;;;5.10;99.90;;;;;;5117383;28;20530;-69
2021/12/24 05:46:04;;;;;;;17.07;10.53;;;5.10;99.90;;;;;;5116773;28;20813;-68
2021/12/24 05:48:30;;;;;;;18.47;10.23;;;5.10;99.90;;;;;;5117920;28;20460;-69
2021/12/24 05:50:58;;;;;;;15.60;9.37;;;5.10;99.90;;;;;;5116984;28;20557;-69
2021/12/24 05:53:26;;;;;;;14.87;8.93;;;5.10;99.90;;;;;;5116812;28;20456;-69
2021/12/24 05:55:53;;;;;;;15.00;8.93;;;5.10;99.90;;;;;;5117101;28;20456;-69
2021/12/24 05:58:20;;;;;;;15.73;9.13;;;5.10;99.90;;;;;;5117036;28;20464;-69
2021/12/24 06:00:48;;;;;;;12.93;9.10;;;5.10;99.90;;;;;;5117055;28;20923;-70
2021/12/24 06:03:19;;;;;;;12.47;9.10;;;5.10;99.90;;;;;;5116585;28;20916;-70
2021/12/24 06:05:48;;;;;;;12.57;8.10;;;5.10;99.90;;;;;;5116703;28;20437;-70
2021/12/24 06:08:17;;;;;;;12.40;8.60;;;5.20;99.90;;;;;;5116791;28;20456;-70
2021/12/24 06:10:44;;;;;;;12.20;7.97;;;5.20;99.90;;;;;;5116603;28;20483;-69
2021/12/24 06:13:11;;;;;;;13.40;8.23;;;5.20;99.90;;;;;;5116864;28;20467;-69
2021/12/24 06:15:44;;;;;;;10.60;8.13;;;5.30;99.90;;;;;;5116243;28;20913;-68
2021/12/24 06:18:18;;;;;;;11.57;7.90;;;5.20;99.90;;;;;;5116613;28;20448;-69
2021/12/24 06:20:45;;;;;;;11.80;8.37;;;5.30;99.90;;;;;;5116206;28;20436;-69
2021/12/24 06:23:12;;;;;;;9.80;6.83;;;5.30;99.90;;;;;;5116205;28;20916;-70
2021/12/24 06:25:40;;;;;;;9.80;7.20;;;5.30;99.90;;;;;;5116038;28;20550;-68
2021/12/24 06:28:07;;;;;;;9.17;7.27;;;5.30;99.90;;;;;;5116881;28;20850;-69
2021/12/24 06:30:34;;;;;;;11.93;7.33;;;5.30;99.90;;;;;;5116289;28;20473;-69
2021/12/24 06:33:01;;;;;;;12.90;8.40;;;5.40;99.90;;;;;;5116829;27;20456;-69
2021/12/24 06:35:28;;;;;;;11.17;8.40;;;5.40;99.90;;;;;;5116292;28;20463;-69
2021/12/24 06:37:57;;;;;;;8.60;7.40;;;5.40;99.90;;;;;;5116344;28;20470;-69
2021/12/24 06:40:25;;;;;;;8.80;6.70;;;5.40;99.90;;;;;;5116105;28;20513;-70
2021/12/24 06:42:53;;;;;;;10.23;8.27;;;5.40;99.90;;;;;;5115966;28;20904;-69
2021/12/24 06:45:23;;;;;;;10.03;7.17;;;5.40;99.90;;;;;;5115723;28;20495;-69
2021/12/24 06:47:54;;;;;;;8.77;7.40;;;5.40;99.90;;;;;;5115926;28;20424;-69
2021/12/24 06:50:22;;;;;;;9.70;6.90;;;5.50;99.90;;;;;;5115203;28;20505;-69
2021/12/24 06:52:49;;;;;;;10.77;7.10;;;5.50;99.90;;;;;;5115605;28;20457;-69
2021/12/24 06:55:16;;;;;;;8.80;7.50;;;5.50;99.90;;;;;;5115673;28;20912;-69
2021/12/24 06:57:44;;;;;;;8.17;5.90;;;5.60;99.90;;;;;;5116039;28;20456;-69
2021/12/24 07:00:16;;;;;;;6.67;5.60;;;5.60;99.90;;;;;;5115862;28;20471;-69
2021/12/24 07:02:43;;;;;;;7.47;6.33;;;5.60;99.90;;;;;;5115509;28;20455;-70
2021/12/24 07:05:13;;;;;;;6.77;5.90;;;5.60;99.90;;;;;;5115760;28;20464;-70
2021/12/24 07:07:40;;;;;;;7.20;5.60;;;5.60;99.90;;;;;;5115573;28;20509;-69
2021/12/24 07:10:07;;;;;;;7.83;6.00;;;5.70;99.90;;;;;;5115212;28;20489;-70
2021/12/24 07:12:36;;;;;;;6.30;5.33;;;5.70;99.90;;;;;;5115508;28;20475;-69
2021/12/24 07:15:03;;;;;;;5.70;5.03;;;5.70;99.90;;;;;;5115292;28;20456;-70
2021/12/24 07:17:32;;;;;;;5.93;5.37;;;5.70;99.90;;;;;;5115489;28;20467;-70
2021/12/24 07:19:58;;;;;;;5.77;5.27;;;5.70;99.90;;;;;;5115515;28;20475;-71
2021/12/24 07:22:25;;;;;;;11.73;5.07;;;5.70;99.90;;;;;;5115645;28;20456;-71
2021/12/24 07:24:55;;;;;;;5.43;4.77;;;5.70;99.90;;;;;;5115403;28;20460;-71
2021/12/24 07:27:22;;;;;;;5.83;5.33;;;5.70;99.90;;;;;;5115393;28;20452;-71
2021/12/24 07:29:49;;;;;;;5.27;4.70;;;5.70;99.90;;;;;;5115187;28;20452;-71
2021/12/24 07:32:16;;;;;;;6.90;5.67;;;5.70;99.90;;;;;;5114933;28;20920;-72
2021/12/24 07:34:46;;;;;;;5.90;4.47;;;5.80;99.90;;;;;;5115388;28;20456;-70
2021/12/24 07:37:12;;;;;;;6.10;4.90;;;5.80;99.90;;;;;;5115221;28;20456;-70
2021/12/24 07:39:39;;;;;;;4.63;4.20;;;5.80;99.90;;;;;;5114986;28;20521;-71
2021/12/24 07:42:07;;;;;;;4.60;4.20;;;5.80;99.90;;;;;;5113744;28;20456;-70
2021/12/24 07:44:35;;;;;;;5.40;4.80;;;5.80;99.90;;;;;;5114755;28;20804;-70
2021/12/24 07:47:03;;;;;;;7.13;5.93;;;5.80;99.90;;;;;;5114954;28;20892;-70
2021/12/24 07:49:33;;;;;;;6.10;5.50;;;5.80;99.90;;;;;;5115241;28;20533;-71
2021/12/24 07:52:08;;;;;;;5.80;5.20;;;5.90;99.90;;;;;;5114774;28;20484;-71
2021/12/24 07:54:36;;;;;;;5.20;4.23;;;5.90;99.90;;;;;;5116179;28;20444;-70
2021/12/24 07:57:04;;;;;;;5.40;4.50;;;5.90;99.90;;;;;;5115600;28;20456;-70
2021/12/24 07:59:31;;;;;;;5.03;4.30;;;5.90;99.90;;;;;;5114974;28;20474;-70
2021/12/24 08:01:58;;;;;;;5.10;4.60;;;5.90;99.90;;;;;;5116798;28;20444;-70
2021/12/24 08:04:25;;;;;;;5.60;4.53;;;6.00;99.90;;;;;;5118912;28;20934;-70
2021/12/24 08:06:55;;;;;;;4.80;4.40;;;5.90;99.90;;;;;;5119119;27;20456;-70
2021/12/24 08:09:23;;;;;;;4.40;4.00;;;6.00;99.90;;;;;;5119266;28;20939;-70
2021/12/24 08:11:49;;;;;;;4.60;4.17;;;6.00;99.90;;;;;;5119035;28;20480;-70
2021/12/24 08:14:16;;;;;;;4.50;4.10;;;6.00;99.90;;;;;;5119026;28;20452;-70
2021/12/24 08:16:44;;;;;;;4.63;4.20;;;6.00;99.90;;;;;;5118448;28;20876;-71
2021/12/24 08:19:11;;;;;;;4.70;4.20;;;6.00;99.90;;;;;;5118845;28;20524;-69
2021/12/24 08:21:38;;;;;;;4.30;3.90;;;6.00;99.90;;;;;;5118825;28;20505;-69
2021/12/24 08:24:05;;;;;;;4.50;4.10;;;6.00;99.90;;;;;;5118794;28;20456;-69
2021/12/24 08:26:33;;;;;;;3.80;3.40;;;6.00;99.90;;;;;;5118354;28;20509;-70
2021/12/24 08:29:00;;;;;;;5.63;4.20;;;6.00;99.90;;;;;;5118427;28;20794;-70
2021/12/24 08:31:26;;;;;;;4.13;3.73;;;6.00;99.90;;;;;;5118359;27;20476;-70
2021/12/24 08:33:53;;;;;;;3.90;3.60;;;6.00;99.90;;;;;;5118371;28;20462;-70
2021/12/24 08:36:20;;;;;;;4.13;3.73;;;6.00;99.90;;;;;;5118534;28;20493;-70
2021/12/24 08:38:46;;;;;;;4.73;4.33;;;6.00;99.90;;;;;;5118655;28;20479;-69
2021/12/24 08:41:13;;;;;;;4.10;3.73;;;6.00;99.90;;;;;;5118400;28;20463;-69
2021/12/24 08:43:41;;;;;;;4.53;3.63;;;6.10;99.90;;;;;;5118617;28;20451;-70
2021/12/24 08:46:08;;;;;;;4.20;3.53;;;6.10;99.90;;;;;;5117852;28;20905;-69
2021/12/24 08:48:35;;;;;;;3.80;3.27;;;6.10;99.90;;;;;;5118534;27;20765;-70
2021/12/24 08:51:02;;;;;;;4.70;4.27;;;6.10;99.90;;;;;;5117991;28;20472;-69
2021/12/24 08:53:28;;;;;;;3.70;3.30;;;6.10;99.90;;;;;;5118362;28;20950;-70
2021/12/24 08:55:57;;;;;;;3.17;2.87;;;6.10;99.90;;;;;;5117859;28;20916;-70
2021/12/24 08:58:24;;;;;;;3.27;2.97;;;6.10;99.90;;;;;;5118272;27;20537;-70
2021/12/24 09:00:52;;;;;;;3.27;2.80;;;6.10;99.90;;;;;;5118302;28;20905;-70
2021/12/24 09:03:19;;;;;;;4.10;3.70;;;6.10;99.90;;;;;;5118276;28;20457;-70
2021/12/24 09:05:46;;;;;;;4.50;3.30;;;6.10;99.90;;;;;;5118400;28;20461;-70
2021/12/24 09:08:13;;;;;;;3.90;3.50;;;6.10;99.90;;;;;;5118063;28;20460;-70
2021/12/24 09:10:40;;;;;;;3.50;3.20;;;6.10;99.90;;;;;;5117634;28;20507;-69
2021/12/24 09:13:07;;;;;;;3.23;2.97;;;6.10;99.90;;;;;;5116740;28;20468;-70
2021/12/24 09:15:37;;;;;;;3.43;3.13;;;6.10;99.90;;;;;;5117944;28;20517;-70
2021/12/24 09:18:05;;;;;;;4.07;3.60;;;6.10;99.90;;;;;;5117705;28;20547;-69
2021/12/24 09:20:37;;;;;;;3.50;2.83;;;6.10;99.90;;;;;;5117451;28;20456;-69
2021/12/24 09:23:05;;;;;;;3.20;2.90;;;6.10;99.90;;;;;;5117702;28;20483;-69
2021/12/24 09:25:32;;;;;;;2.80;2.60;;;6.10;99.90;;;;;;5117600;27;20874;-69
2021/12/24 09:28:03;;;;;;;3.13;2.83;;;6.10;99.90;;;;;;5117665;27;20461;-70
2021/12/24 09:30:31;;;;;;;3.20;2.83;;;6.10;99.90;;;;;;5117211;28;20466;-70
2021/12/24 09:32:58;;;;;;;2.67;2.20;;;6.10;99.90;;;;;;5118038;28;20456;-69
2021/12/24 09:35:27;;;;;;;3.10;2.80;;;6.00;99.90;;;;;;5117269;28;20457;-69
2021/12/24 09:37:54;;;;;;;3.57;3.27;;;6.00;99.90;;;;;;5117185;28;20460;-70
2021/12/24 09:40:21;;;;;;;3.03;2.70;;;6.00;99.90;;;;;;5117035;28;20917;-70
2021/12/24 09:42:49;;;;;;;3.07;2.77;;;6.00;99.90;;;;;;5117374;28;20452;-70
2021/12/24 09:45:16;;;;;;;2.80;2.60;;;6.00;99.90;;;;;;5117040;28;20484;-69
2021/12/24 09:47:43;;;;;;;2.97;2.03;;;6.10;99.90;;;;;;5117134;28;20457;-69
2021/12/24 09:50:15;;;;;;;3.43;1.87;;;6.00;99.90;;;;;;5117373;28;20465;-69
2021/12/24 09:52:45;;;;;;;2.73;2.50;;;6.10;99.90;;;;;;5117495;28;20461;-70
2021/12/24 09:55:15;;;;;;;4.40;2.23;;;6.10;99.90;;;;;;5117471;28;20835;-69
2021/12/24 09:57:44;;;;;;;2.50;2.30;;;6.00;99.90;;;;;;5117684;28;20525;-70
2021/12/24 10:00:16;;;;;;;3.00;2.07;;;6.00;99.90;;;;;;5117055;28;20452;-70
2021/12/24 10:02:46;;;;;;;2.40;2.20;;;6.00;99.90;;;;;;5117045;28;20452;-70
2021/12/24 10:05:33;;;;;;;2.70;2.50;;;6.00;99.90;;;;;;5117317;28;20584;-70
2021/12/24 10:08:04;;;;;;;2.87;2.67;;;6.00;99.90;;;;;;5117332;28;20877;-70
2021/12/24 10:10:32;;;;;;;3.10;2.80;;;6.00;99.90;;;;;;5116904;28;20452;-70
2021/12/24 10:13:27;;;;;;;3.17;2.90;;;6.10;99.90;;;;;;5116744;28;20848;-70
2021/12/24 10:15:55;;;;;;;3.20;2.90;;;6.00;99.90;;;;;;5116673;28;20492;-70
2021/12/24 10:18:30;;;;;;;3.07;2.80;;;6.00;99.90;;;;;;5116652;28;20762;-70
2021/12/24 10:21:02;;;;;;;2.87;2.57;;;6.00;99.90;;;;;;5116806;28;20456;-69
2021/12/24 10:23:42;;;;;;;3.90;3.50;;;6.00;99.90;;;;;;5116608;28;20453;-69
2021/12/24 10:26:15;;;;;;;3.40;3.10;;;6.00;99.90;;;;;;5114997;28;20955;-70
2021/12/24 10:28:53;;;;;;;3.33;3.03;;;6.00;99.90;;;;;;5116640;28;20440;-69
2021/12/24 10:31:22;;;;;;;3.10;2.80;;;6.00;99.90;;;;;;5116108;27;20476;-69
2021/12/24 10:34:22;;;;;;;3.63;3.33;;;6.00;99.90;;;;;;5116336;28;20467;-70
2021/12/24 10:37:08;;;;;;;3.40;3.10;;;6.00;99.90;;;;;;5115977;28;20476;-69
2021/12/24 10:39:39;;;;;;;3.10;2.77;;;6.00;99.90;;;;;;5116240;28;20480;-69
2021/12/24 10:42:13;;;;;;;3.30;3.00;;;5.90;99.90;;;;;;5115865;28;20448;-69
2021/12/24 10:44:47;;;;;;;2.77;2.57;;;5.90;99.90;;;;;;5115801;28;20536;-69
2021/12/24 10:47:16;;;;;;;2.77;2.57;;;5.90;99.90;;;;;;5116118;28;20440;-70
2021/12/24 10:50:00;;;;;;;2.63;2.43;;;5.90;99.90;;;;;;5115783;28;20449;-70
2021/12/24 10:52:44;;;;;;;3.40;2.53;;;5.90;99.90;;;;;;5116075;28;20465;-70
2021/12/24 10:55:15;;;;;;;3.40;2.23;;;5.80;99.90;;;;;;5116160;28;20437;-70
2021/12/24 10:57:44;;;;;;;2.80;2.60;;;5.80;99.90;;;;;;5115925;28;20769;-70
2021/12/24 11:00:21;;;;;;;3.87;2.73;;;5.80;99.90;;;;;;5115672;28;20468;-69
2021/12/24 11:02:54;;;;;;;3.30;2.70;;;5.70;99.90;;;;;;5115781;28;20432;-71
2021/12/24 11:05:31;;;;;;;9.07;6.40;;;5.80;99.90;;;;;;5115700;28;20436;-69
2021/12/24 11:08:00;;;;;;;3.17;2.87;;;5.70;99.90;;;;;;5115941;28;20501;-70
2021/12/24 11:10:30;;;;;;;2.80;2.60;;;5.70;99.90;;;;;;5115624;28;20517;-71
2021/12/24 11:12:59;;;;;;;2.97;2.60;;;5.70;99.90;;;;;;5115284;28;20537;-70
2021/12/24 11:15:32;;;;;;;2.37;2.17;;;5.70;99.90;;;;;;5115925;28;20453;-70
2021/12/24 11:18:01;;;;;;;2.60;2.40;;;5.70;99.90;;;;;;5115772;28;20749;-70
2021/12/24 11:20:30;;;;;;;3.07;2.00;;;5.60;99.90;;;;;;5115187;28;20456;-70
2021/12/24 11:23:02;;;;;;;2.17;1.90;;;5.60;99.90;;;;;;5115488;28;20480;-70
2021/12/24 11:25:34;;;;;;;2.30;2.10;;;5.50;99.90;;;;;;5115044;28;20486;-70
2021/12/24 11:28:02;;;;;;;1.83;1.73;;;5.50;99.90;;;;;;5115113;28;20444;-69
2021/12/24 11:30:31;;;;;;;2.43;2.10;;;5.50;99.90;;;;;;5115306;28;20483;-69
2021/12/24 11:32:58;;;;;;;1.90;1.63;;;5.50;99.90;;;;;;5115387;28;20537;-71
2021/12/24 11:35:26;;;;;;;1.50;1.40;;;5.40;99.90;;;;;;5115443;28;20460;-71
2021/12/24 11:37:54;;;;;;;1.50;1.20;;;5.30;99.90;;;;;;5114980;28;20479;-71
2021/12/24 11:40:24;;;;;;;1.90;1.57;;;5.20;99.90;;;;;;5115137;28;20543;-70
2021/12/24 11:42:58;;;;;;;1.83;1.37;;;5.10;99.90;;;;;;5115498;28;20463;-69
2021/12/24 11:45:27;;;;;;;1.70;1.60;;;5.10;99.90;;;;;;5114520;28;20960;-69
2021/12/24 11:47:55;;;;;;;1.50;1.40;;;5.10;99.90;;;;;;5115131;28;20767;-69
2021/12/24 11:50:26;;;;;;;1.50;1.40;;;5.10;99.90;;;;;;5115259;28;20501;-69
2021/12/24 11:52:58;;;;;;;1.93;1.83;;;5.10;99.90;;;;;;5114714;28;20471;-70
2021/12/24 11:55:27;;;;;;;2.00;1.80;;;5.00;99.90;;;;;;5114961;28;20441;-69
2021/12/24 11:57:58;;;;;;;1.80;1.60;;;5.00;99.90;;;;;;5115892;28;20456;-70
2021/12/24 12:00:30;;;;;;;2.07;1.87;;;5.00;99.90;;;;;;5115221;28;20555;-70
2021/12/24 12:02:57;;;;;;;2.60;1.87;;;5.00;99.90;;;;;;5115314;28;20505;-70
2021/12/24 12:05:31;;;;;;;2.10;1.90;;;4.90;99.90;;;;;;5114949;28;20483;-69
2021/12/24 12:08:33;;;;;;;1.90;1.60;;;4.90;99.90;;;;;;5115531;28;20444;-69
2021/12/24 12:11:02;;;;;;;1.70;1.40;;;4.80;99.90;;;;;;5110785;28;20456;-69
2021/12/24 12:13:45;;;;;;;1.67;1.33;;;4.60;99.90;;;;;;5115200;28;20488;-69
2021/12/24 12:16:15;;;;;;;1.90;1.43;;;4.60;99.90;;;;;;5121023;28;20456;-69
2021/12/24 12:18:47;;;;;;;1.67;1.40;;;4.50;99.90;;;;;;5118254;28;20441;-69
2021/12/24 12:21:18;;;;;;;2.30;1.37;;;4.40;99.90;;;;;;5116472;28;20444;-69
2021/12/24 12:24:57;;;;;;;1.93;1.27;;;4.40;99.90;;;;;;5115208;28;20516;-69
2021/12/24 12:26:53;;;;;;;1.90;1.67;;;4.20;99.90;;;;;;5114355;28;20448;-69
2021/12/24 12:29:25;;;;;;;1.53;1.43;;;4.10;99.90;;;;;;5114906;28;20452;-70
2021/12/24 12:31:56;;;;;;;1.20;1.10;;;4.10;99.90;;;;;;5114848;28;20472;-69
2021/12/24 12:34:48;;;;;;;1.40;1.20;;;4.00;99.90;;;;;;5114499;28;20463;-69
2021/12/24 12:37:17;;;;;;;1.47;1.37;;;3.90;99.90;;;;;;5114884;28;20544;-69
2021/12/24 12:39:45;;;;;;;1.83;1.33;;;3.80;99.90;;;;;;5114806;28;20783;-70
2021/12/24 12:42:17;;;;;;;1.53;1.33;;;3.80;99.90;;;;;;5114569;28;20821;-69
2021/12/24 12:44:48;;;;;;;2.20;1.90;;;3.70;99.90;;;;;;5115439;28;20480;-71
2021/12/24 12:47:17;;;;;;;2.17;2.00;;;3.70;99.90;;;;;;5115547;28;20459;-70
2021/12/24 12:49:44;;;;;;;2.00;1.90;;;3.70;99.90;;;;;;5118115;28;20466;-70
2021/12/24 12:52:21;;;;;;;2.00;1.90;;;3.60;99.90;;;;;;5118913;28;20503;-70
2021/12/24 12:54:49;;;;;;;2.33;2.13;;;3.60;99.90;;;;;;5118581;28;20446;-69
2021/12/24 12:57:31;;;;;;;2.73;2.53;;;3.60;99.90;;;;;;5118320;28;20456;-69
2021/12/24 13:00:22;;;;;;;5.30;2.43;;;3.50;99.90;;;;;;5118248;28;20432;-69
2021/12/24 13:03:14;;;;;;;2.67;2.47;;;3.50;99.90;;;;;;5117971;28;20520;-69
2021/12/24 13:06:05;;;;;;;3.20;2.90;;;3.40;99.90;;;;;;5118147;28;20436;-70
2021/12/24 13:08:35;;;;;;;3.27;2.90;;;3.30;99.90;;;;;;5118421;28;20444;-70
2021/12/24 13:11:05;;;;;;;3.30;3.07;;;3.30;99.90;;;;;;5118466;28;20452;-70
2021/12/24 13:13:33;;;;;;;5.80;3.70;;;3.30;99.90;;;;;;5117766;28;20536;-70
2021/12/24 13:16:01;;;;;;;4.90;4.20;;;3.40;99.90;;;;;;5117945;28;20793;-70
2021/12/24 13:18:32;;;;;;;4.37;3.97;;;3.40;99.90;;;;;;5117577;28;20448;-70
2021/12/24 13:23:47;;;;;;;4.60;4.20;;;3.40;99.90;;;;;;5117714;28;20750;-70
2021/12/24 13:26:18;;;;;;;4.70;4.30;;;3.30;99.90;;;;;;5117620;28;20456;-69
2021/12/24 13:29:00;;;;;;;5.73;4.50;;;3.30;99.90;;;;;;5117495;28;20517;-70
2021/12/24 13:31:30;;;;;;;5.50;4.70;;;3.20;99.90;;;;;;5117621;28;20455;-69
2021/12/24 13:33:57;;;;;;;4.50;4.07;;;3.20;99.90;;;;;;5117210;28;20973;-70
2021/12/24 13:36:26;;;;;;;5.90;4.70;;;3.10;99.90;;;;;;5117780;27;20452;-69
2021/12/24 13:38:53;;;;;;;5.07;4.57;;;3.10;99.90;;;;;;5117739;28;20464;-71
2021/12/24 13:41:24;;;;;;;6.03;5.50;;;3.10;99.90;;;;;;5117106;28;20460;-70
2021/12/24 13:43:50;;;;;;;7.10;5.90;;;3.00;99.90;;;;;;5117486;28;20448;-70
2021/12/24 13:46:17;;;;;;;5.60;4.80;;;3.00;99.90;;;;;;5116920;28;20480;-70
2021/12/24 13:49:09;;;;;;;6.00;5.23;;;3.00;99.90;;;;;;5117147;28;20761;-70
2021/12/24 13:54:33;;;;;;;8.20;5.07;;;3.10;99.90;;;;;;5117355;28;20748;-70
2021/12/24 13:57:01;;;;;;;6.87;5.37;;;3.00;99.90;;;;;;5117812;28;20493;-71
2021/12/24 13:59:29;;;;;;;5.77;5.13;;;2.90;99.90;;;;;;5117032;28;20448;-69
2021/12/24 14:01:56;;;;;;;6.30;5.70;;;2.90;99.90;;;;;;5117764;28;20449;-69
2021/12/24 14:04:24;;;;;;;6.20;5.60;;;2.90;99.90;;;;;;5117537;28;20472;-69
2021/12/24 14:06:55;;;;;;;5.90;5.30;;;2.90;99.90;;;;;;5117652;28;20818;-70
2021/12/24 14:09:23;;;;;;;6.50;5.47;;;2.90;99.90;;;;;;5117265;28;20448;-70
2021/12/24 14:11:53;;;;;;;9.13;6.33;;;2.90;99.90;;;;;;5117180;28;20488;-69
2021/12/24 14:14:24;;;;;;;6.57;5.87;;;2.90;99.90;;;;;;5117488;28;20514;-70
2021/12/24 14:17:04;;;;;;;6.90;5.43;;;2.90;99.90;;;;;;5117612;28;20514;-70
2021/12/24 14:19:47;;;;;;;6.90;6.20;;;2.90;99.90;;;;;;5117896;28;20529;-70
2021/12/24 14:22:16;;;;;;;6.00;5.40;;;2.90;99.90;;;;;;5117573;28;20436;-70
2021/12/24 14:24:51;;;;;;;6.00;5.33;;;2.80;99.90;;;;;;5117276;28;20452;-69